sensor_id;sensor_type;location;lat;lon;timestamp;P1;durP1;ratioP1;P2;durP2;ratioP2
69253;SDS011;56364;41.816;12.448;2023-08-20T00:01:28;10.48;;;3.53;;
69253;SDS011;56364;41.816;12.448;2023-08-20T00:03:54;8.75;;;3.17;;
69253;SDS011;56364;41.816;12.448;2023-08-20T00:06:21;7.15;;;3.47;;
69253;SDS011;56364;41.816;12.448;2023-08-20T00:08:47;6.47;;;2.90;;
69253;SDS011;56364;41.816;12.448;2023-08-20T00:11:13;8.82;;;3.03;;
69253;SDS011;56364;41.816;12.448;2023-08-20T00:13:43;9.60;;;3.25;;
69253;SDS011;56364;41.816;12.448;2023-08-20T00:16:09;7.35;;;3.15;;
69253;SDS011;56364;41.816;12.448;2023-08-20T00:18:35;11.70;;;3.25;;
69253;SDS011;56364;41.816;12.448;2023-08-20T00:21:03;7.93;;;3.40;;
69253;SDS011;56364;41.816;12.448;2023-08-20T00:23:29;11.65;;;3.92;;
69253;SDS011;56364;41.816;12.448;2023-08-20T00:25:58;7.80;;;3.38;;
69253;SDS011;56364;41.816;12.448;2023-08-20T00:33:34;14.25;;;3.60;;
69253;SDS011;56364;41.816;12.448;2023-08-20T00:36:03;10.48;;;3.50;;
69253;SDS011;56364;41.816;12.448;2023-08-20T00:38:29;8.68;;;3.28;;
69253;SDS011;56364;41.816;12.448;2023-08-20T00:40:55;9.93;;;3.95;;
69253;SDS011;56364;41.816;12.448;2023-08-20T00:43:21;8.98;;;3.22;;
69253;SDS011;56364;41.816;12.448;2023-08-20T00:45:47;9.07;;;4.03;;
69253;SDS011;56364;41.816;12.448;2023-08-20T00:48:13;8.63;;;3.22;;
69253;SDS011;56364;41.816;12.448;2023-08-20T00:50:39;8.10;;;3.65;;
69253;SDS011;56364;41.816;12.448;2023-08-20T00:53:07;12.68;;;3.20;;
69253;SDS011;56364;41.816;12.448;2023-08-20T00:55:33;6.90;;;3.10;;
69253;SDS011;56364;41.816;12.448;2023-08-20T01:00:35;8.27;;;3.63;;
69253;SDS011;56364;41.816;12.448;2023-08-20T01:03:01;7.78;;;3.70;;
69253;SDS011;56364;41.816;12.448;2023-08-20T01:05:29;9.73;;;3.17;;
69253;SDS011;56364;41.816;12.448;2023-08-20T01:13:04;5.32;;;2.80;;
69253;SDS011;56364;41.816;12.448;2023-08-20T01:15:31;6.40;;;3.15;;
69253;SDS011;56364;41.816;12.448;2023-08-20T01:17:57;5.05;;;2.83;;
69253;SDS011;56364;41.816;12.448;2023-08-20T01:28:30;5.50;;;2.83;;
69253;SDS011;56364;41.816;12.448;2023-08-20T01:30:58;6.55;;;3.10;;
69253;SDS011;56364;41.816;12.448;2023-08-20T01:33:24;7.50;;;2.72;;
69253;SDS011;56364;41.816;12.448;2023-08-20T01:35:53;6.70;;;3.03;;
69253;SDS011;56364;41.816;12.448;2023-08-20T01:38:19;6.10;;;2.70;;
69253;SDS011;56364;41.816;12.448;2023-08-20T01:40:46;4.60;;;2.90;;
69253;SDS011;56364;41.816;12.448;2023-08-20T01:43:12;5.45;;;3.15;;
69253;SDS011;56364;41.816;12.448;2023-08-20T01:48:19;6.22;;;3.65;;
69253;SDS011;56364;41.816;12.448;2023-08-20T01:50:45;5.63;;;2.58;;
69253;SDS011;56364;41.816;12.448;2023-08-20T01:53:11;5.75;;;2.70;;
69253;SDS011;56364;41.816;12.448;2023-08-20T01:55:37;6.03;;;2.75;;
69253;SDS011;56364;41.816;12.448;2023-08-20T01:58:03;7.30;;;2.65;;
69253;SDS011;56364;41.816;12.448;2023-08-20T02:00:29;4.85;;;2.70;;
69253;SDS011;56364;41.816;12.448;2023-08-20T02:02:56;5.75;;;2.70;;
69253;SDS011;56364;41.816;12.448;2023-08-20T02:05:22;5.53;;;2.63;;
69253;SDS011;56364;41.816;12.448;2023-08-20T02:07:48;6.35;;;2.92;;
69253;SDS011;56364;41.816;12.448;2023-08-20T02:10:14;4.78;;;2.75;;
69253;SDS011;56364;41.816;12.448;2023-08-20T02:12:40;6.03;;;2.97;;
69253;SDS011;56364;41.816;12.448;2023-08-20T02:15:07;8.98;;;3.40;;
69253;SDS011;56364;41.816;12.448;2023-08-20T02:17:36;4.82;;;2.72;;
69253;SDS011;56364;41.816;12.448;2023-08-20T02:20:06;6.10;;;3.17;;
69253;SDS011;56364;41.816;12.448;2023-08-20T02:22:35;6.38;;;2.88;;
69253;SDS011;56364;41.816;12.448;2023-08-20T02:25:01;9.15;;;3.20;;
69253;SDS011;56364;41.816;12.448;2023-08-20T02:27:27;6.05;;;3.20;;
69253;SDS011;56364;41.816;12.448;2023-08-20T02:29:53;6.72;;;2.80;;
69253;SDS011;56364;41.816;12.448;2023-08-20T02:32:19;7.10;;;3.33;;
69253;SDS011;56364;41.816;12.448;2023-08-20T02:34:48;7.00;;;2.78;;
69253;SDS011;56364;41.816;12.448;2023-08-20T02:37:14;6.55;;;3.20;;
69253;SDS011;56364;41.816;12.448;2023-08-20T02:39:40;5.45;;;2.88;;
69253;SDS011;56364;41.816;12.448;2023-08-20T02:42:06;5.15;;;2.70;;
69253;SDS011;56364;41.816;12.448;2023-08-20T02:44:36;7.32;;;2.92;;
69253;SDS011;56364;41.816;12.448;2023-08-20T02:47:08;6.70;;;3.05;;
69253;SDS011;56364;41.816;12.448;2023-08-20T02:49:34;7.25;;;2.92;;
69253;SDS011;56364;41.816;12.448;2023-08-20T02:52:00;5.68;;;2.97;;
69253;SDS011;56364;41.816;12.448;2023-08-20T02:54:28;5.88;;;3.10;;
69253;SDS011;56364;41.816;12.448;2023-08-20T02:56:57;5.40;;;2.92;;
69253;SDS011;56364;41.816;12.448;2023-08-20T02:59:23;8.45;;;3.03;;
69253;SDS011;56364;41.816;12.448;2023-08-20T03:01:49;6.45;;;3.00;;
69253;SDS011;56364;41.816;12.448;2023-08-20T03:04:15;6.65;;;2.90;;
69253;SDS011;56364;41.816;12.448;2023-08-20T03:06:41;8.18;;;3.03;;
69253;SDS011;56364;41.816;12.448;2023-08-20T03:09:07;5.97;;;3.22;;
69253;SDS011;56364;41.816;12.448;2023-08-20T03:11:33;5.30;;;2.75;;
69253;SDS011;56364;41.816;12.448;2023-08-20T03:13:59;5.10;;;2.97;;
69253;SDS011;56364;41.816;12.448;2023-08-20T03:16:25;9.07;;;3.15;;
69253;SDS011;56364;41.816;12.448;2023-08-20T03:18:51;7.45;;;3.90;;
69253;SDS011;56364;41.816;12.448;2023-08-20T03:21:17;5.75;;;2.95;;
69253;SDS011;56364;41.816;12.448;2023-08-20T03:23:43;5.13;;;2.95;;
69253;SDS011;56364;41.816;12.448;2023-08-20T03:26:09;5.38;;;2.72;;
69253;SDS011;56364;41.816;12.448;2023-08-20T03:28:35;8.20;;;3.72;;
69253;SDS011;56364;41.816;12.448;2023-08-20T03:31:01;9.80;;;2.97;;
69253;SDS011;56364;41.816;12.448;2023-08-20T03:33:27;6.65;;;3.10;;
69253;SDS011;56364;41.816;12.448;2023-08-20T03:35:53;7.60;;;3.17;;
69253;SDS011;56364;41.816;12.448;2023-08-20T03:38:19;8.68;;;3.08;;
69253;SDS011;56364;41.816;12.448;2023-08-20T03:40:47;5.95;;;2.97;;
69253;SDS011;56364;41.816;12.448;2023-08-20T03:43:13;4.85;;;2.78;;
69253;SDS011;56364;41.816;12.448;2023-08-20T03:45:39;6.13;;;3.00;;
69253;SDS011;56364;41.816;12.448;2023-08-20T03:48:05;5.93;;;2.65;;
69253;SDS011;56364;41.816;12.448;2023-08-20T03:50:31;5.07;;;2.88;;
69253;SDS011;56364;41.816;12.448;2023-08-20T03:52:57;11.02;;;3.13;;
69253;SDS011;56364;41.816;12.448;2023-08-20T03:55:26;6.88;;;2.83;;
69253;SDS011;56364;41.816;12.448;2023-08-20T03:57:52;7.38;;;3.00;;
69253;SDS011;56364;41.816;12.448;2023-08-20T04:00:18;6.72;;;2.83;;
69253;SDS011;56364;41.816;12.448;2023-08-20T04:02:44;7.47;;;2.95;;
69253;SDS011;56364;41.816;12.448;2023-08-20T04:05:10;6.20;;;3.08;;
69253;SDS011;56364;41.816;12.448;2023-08-20T04:07:36;7.10;;;3.17;;
69253;SDS011;56364;41.816;12.448;2023-08-20T04:10:02;6.07;;;3.05;;
69253;SDS011;56364;41.816;12.448;2023-08-20T04:12:28;6.00;;;2.95;;
69253;SDS011;56364;41.816;12.448;2023-08-20T04:14:54;6.15;;;3.35;;
69253;SDS011;56364;41.816;12.448;2023-08-20T04:17:20;4.90;;;2.85;;
69253;SDS011;56364;41.816;12.448;2023-08-20T04:19:46;5.25;;;3.10;;
69253;SDS011;56364;41.816;12.448;2023-08-20T04:22:12;6.47;;;3.20;;
69253;SDS011;56364;41.816;12.448;2023-08-20T04:24:38;6.78;;;2.85;;
69253;SDS011;56364;41.816;12.448;2023-08-20T04:27:04;5.75;;;3.15;;
69253;SDS011;56364;41.816;12.448;2023-08-20T04:29:30;6.55;;;3.50;;
69253;SDS011;56364;41.816;12.448;2023-08-20T04:31:56;7.05;;;3.13;;
69253;SDS011;56364;41.816;12.448;2023-08-20T04:34:23;6.63;;;3.45;;
69253;SDS011;56364;41.816;12.448;2023-08-20T04:36:49;8.25;;;3.20;;
69253;SDS011;56364;41.816;12.448;2023-08-20T04:39:15;9.50;;;3.42;;
69253;SDS011;56364;41.816;12.448;2023-08-20T04:41:43;7.28;;;3.60;;
69253;SDS011;56364;41.816;12.448;2023-08-20T04:44:09;6.15;;;3.33;;
69253;SDS011;56364;41.816;12.448;2023-08-20T04:46:35;6.10;;;3.17;;
69253;SDS011;56364;41.816;12.448;2023-08-20T04:49:01;6.00;;;3.40;;
69253;SDS011;56364;41.816;12.448;2023-08-20T04:51:27;6.03;;;3.47;;
69253;SDS011;56364;41.816;12.448;2023-08-20T04:53:53;8.35;;;3.50;;
69253;SDS011;56364;41.816;12.448;2023-08-20T04:56:19;8.40;;;3.22;;
69253;SDS011;56364;41.816;12.448;2023-08-20T04:58:45;8.40;;;3.90;;
69253;SDS011;56364;41.816;12.448;2023-08-20T05:03:45;7.93;;;3.88;;
69253;SDS011;56364;41.816;12.448;2023-08-20T05:06:11;7.20;;;3.20;;
69253;SDS011;56364;41.816;12.448;2023-08-20T05:08:37;8.05;;;3.70;;
69253;SDS011;56364;41.816;12.448;2023-08-20T05:11:03;9.60;;;3.60;;
69253;SDS011;56364;41.816;12.448;2023-08-20T05:13:29;7.35;;;3.70;;
69253;SDS011;56364;41.816;12.448;2023-08-20T05:15:55;6.13;;;3.53;;
69253;SDS011;56364;41.816;12.448;2023-08-20T05:18:21;8.00;;;3.13;;
69253;SDS011;56364;41.816;12.448;2023-08-20T05:20:47;6.72;;;3.70;;
69253;SDS011;56364;41.816;12.448;2023-08-20T05:23:32;13.32;;;3.83;;
69253;SDS011;56364;41.816;12.448;2023-08-20T05:25:58;7.38;;;3.92;;
69253;SDS011;56364;41.816;12.448;2023-08-20T05:28:24;5.95;;;3.40;;
69253;SDS011;56364;41.816;12.448;2023-08-20T05:30:54;7.10;;;3.30;;
69253;SDS011;56364;41.816;12.448;2023-08-20T05:33:21;6.63;;;3.05;;
69253;SDS011;56364;41.816;12.448;2023-08-20T05:35:48;8.02;;;3.63;;
69253;SDS011;56364;41.816;12.448;2023-08-20T05:38:14;5.30;;;3.28;;
69253;SDS011;56364;41.816;12.448;2023-08-20T05:40:40;7.82;;;3.15;;
69253;SDS011;56364;41.816;12.448;2023-08-20T05:43:06;7.25;;;3.80;;
69253;SDS011;56364;41.816;12.448;2023-08-20T05:45:33;9.23;;;3.80;;
69253;SDS011;56364;41.816;12.448;2023-08-20T05:47:59;7.68;;;3.80;;
69253;SDS011;56364;41.816;12.448;2023-08-20T05:50:25;8.35;;;3.75;;
69253;SDS011;56364;41.816;12.448;2023-08-20T05:52:52;6.25;;;3.65;;
69253;SDS011;56364;41.816;12.448;2023-08-20T05:55:18;7.90;;;3.67;;
69253;SDS011;56364;41.816;12.448;2023-08-20T05:57:44;6.40;;;3.28;;
69253;SDS011;56364;41.816;12.448;2023-08-20T06:00:10;6.28;;;3.20;;
69253;SDS011;56364;41.816;12.448;2023-08-20T06:02:37;7.97;;;3.67;;
69253;SDS011;56364;41.816;12.448;2023-08-20T06:05:03;9.52;;;3.47;;
69253;SDS011;56364;41.816;12.448;2023-08-20T06:07:30;7.82;;;4.13;;
69253;SDS011;56364;41.816;12.448;2023-08-20T06:09:56;10.35;;;3.42;;
69253;SDS011;56364;41.816;12.448;2023-08-20T06:12:22;7.22;;;3.30;;
69253;SDS011;56364;41.816;12.448;2023-08-20T06:14:49;7.18;;;3.50;;
69253;SDS011;56364;41.816;12.448;2023-08-20T06:17:15;8.95;;;3.75;;
69253;SDS011;56364;41.816;12.448;2023-08-20T06:19:41;7.80;;;3.53;;
69253;SDS011;56364;41.816;12.448;2023-08-20T06:22:07;6.78;;;3.70;;
69253;SDS011;56364;41.816;12.448;2023-08-20T06:24:33;8.13;;;4.03;;
69253;SDS011;56364;41.816;12.448;2023-08-20T06:27:00;11.93;;;4.05;;
69253;SDS011;56364;41.816;12.448;2023-08-20T06:29:26;7.05;;;3.97;;
69253;SDS011;56364;41.816;12.448;2023-08-20T06:31:52;7.95;;;3.95;;
69253;SDS011;56364;41.816;12.448;2023-08-20T06:34:18;8.43;;;3.88;;
69253;SDS011;56364;41.816;12.448;2023-08-20T06:36:44;9.82;;;4.18;;
69253;SDS011;56364;41.816;12.448;2023-08-20T06:39:10;8.50;;;3.95;;
69253;SDS011;56364;41.816;12.448;2023-08-20T06:41:36;9.50;;;4.50;;
69253;SDS011;56364;41.816;12.448;2023-08-20T06:44:02;8.57;;;4.03;;
69253;SDS011;56364;41.816;12.448;2023-08-20T07:04:42;7.47;;;3.90;;
69253;SDS011;56364;41.816;12.448;2023-08-20T07:07:10;7.30;;;4.25;;
69253;SDS011;56364;41.816;12.448;2023-08-20T07:09:36;11.18;;;4.50;;
69253;SDS011;56364;41.816;12.448;2023-08-20T07:12:03;8.27;;;4.85;;
69253;SDS011;56364;41.816;12.448;2023-08-20T07:14:29;10.18;;;4.97;;
69253;SDS011;56364;41.816;12.448;2023-08-20T07:16:55;9.88;;;5.28;;
69253;SDS011;56364;41.816;12.448;2023-08-20T07:19:21;9.20;;;4.75;;
69253;SDS011;56364;41.816;12.448;2023-08-20T07:21:47;11.70;;;5.20;;
69253;SDS011;56364;41.816;12.448;2023-08-20T07:24:13;9.60;;;4.95;;
69253;SDS011;56364;41.816;12.448;2023-08-20T07:26:39;8.52;;;4.53;;
69253;SDS011;56364;41.816;12.448;2023-08-20T07:29:05;9.13;;;4.68;;
69253;SDS011;56364;41.816;12.448;2023-08-20T07:31:32;13.93;;;5.75;;
69253;SDS011;56364;41.816;12.448;2023-08-20T07:33:59;12.13;;;5.97;;
69253;SDS011;56364;41.816;12.448;2023-08-20T07:36:25;9.60;;;5.55;;
69253;SDS011;56364;41.816;12.448;2023-08-20T07:38:52;9.32;;;5.32;;
69253;SDS011;56364;41.816;12.448;2023-08-20T07:41:18;10.82;;;5.38;;
69253;SDS011;56364;41.816;12.448;2023-08-20T07:43:48;11.45;;;5.68;;
69253;SDS011;56364;41.816;12.448;2023-08-20T07:49:28;11.63;;;5.47;;
69253;SDS011;56364;41.816;12.448;2023-08-20T07:52:32;9.32;;;5.32;;
69253;SDS011;56364;41.816;12.448;2023-08-20T07:55:02;9.85;;;5.40;;
69253;SDS011;56364;41.816;12.448;2023-08-20T07:57:28;11.95;;;5.60;;
69253;SDS011;56364;41.816;12.448;2023-08-20T07:59:54;10.07;;;5.38;;
69253;SDS011;56364;41.816;12.448;2023-08-20T08:02:20;12.75;;;6.07;;
69253;SDS011;56364;41.816;12.448;2023-08-20T08:20:21;15.02;;;6.28;;
69253;SDS011;56364;41.816;12.448;2023-08-20T08:22:47;10.63;;;5.88;;
69253;SDS011;56364;41.816;12.448;2023-08-20T08:25:13;10.48;;;5.63;;
69253;SDS011;56364;41.816;12.448;2023-08-20T08:27:39;14.18;;;6.00;;
69253;SDS011;56364;41.816;12.448;2023-08-20T08:30:05;12.38;;;5.80;;
69253;SDS011;56364;41.816;12.448;2023-08-20T08:32:32;10.48;;;5.53;;
69253;SDS011;56364;41.816;12.448;2023-08-20T08:34:58;12.82;;;6.40;;
69253;SDS011;56364;41.816;12.448;2023-08-20T08:37:24;11.57;;;6.07;;
69253;SDS011;56364;41.816;12.448;2023-08-20T08:39:50;15.55;;;6.30;;
69253;SDS011;56364;41.816;12.448;2023-08-20T08:42:16;12.25;;;6.50;;
69253;SDS011;56364;41.816;12.448;2023-08-20T08:44:42;12.98;;;6.20;;
69253;SDS011;56364;41.816;12.448;2023-08-20T08:47:09;12.63;;;6.55;;
69253;SDS011;56364;41.816;12.448;2023-08-20T08:49:35;10.73;;;6.45;;
69253;SDS011;56364;41.816;12.448;2023-08-20T08:52:01;13.93;;;6.13;;
69253;SDS011;56364;41.816;12.448;2023-08-20T08:54:29;15.73;;;6.20;;
69253;SDS011;56364;41.816;12.448;2023-08-20T08:56:56;13.15;;;5.90;;
69253;SDS011;56364;41.816;12.448;2023-08-20T08:59:22;13.75;;;6.40;;
69253;SDS011;56364;41.816;12.448;2023-08-20T09:06:59;12.35;;;6.07;;
69253;SDS011;56364;41.816;12.448;2023-08-20T09:09:26;11.13;;;6.60;;
69253;SDS011;56364;41.816;12.448;2023-08-20T09:11:55;10.85;;;6.22;;
69253;SDS011;56364;41.816;12.448;2023-08-20T09:14:22;11.93;;;6.80;;
69253;SDS011;56364;41.816;12.448;2023-08-20T09:16:55;12.40;;;6.20;;
69253;SDS011;56364;41.816;12.448;2023-08-20T09:19:22;13.60;;;6.93;;
69253;SDS011;56364;41.816;12.448;2023-08-20T09:21:48;12.93;;;6.53;;
69253;SDS011;56364;41.816;12.448;2023-08-20T09:24:14;13.27;;;6.38;;
69253;SDS011;56364;41.816;12.448;2023-08-20T09:26:45;12.55;;;6.85;;
69253;SDS011;56364;41.816;12.448;2023-08-20T09:29:11;14.57;;;6.82;;
69253;SDS011;56364;41.816;12.448;2023-08-20T09:31:37;14.43;;;6.15;;
69253;SDS011;56364;41.816;12.448;2023-08-20T09:34:04;10.93;;;6.25;;
69253;SDS011;56364;41.816;12.448;2023-08-20T09:36:31;12.25;;;7.07;;
69253;SDS011;56364;41.816;12.448;2023-08-20T09:38:57;11.48;;;6.30;;
69253;SDS011;56364;41.816;12.448;2023-08-20T09:43:57;13.93;;;6.80;;
69253;SDS011;56364;41.816;12.448;2023-08-20T09:46:26;11.63;;;6.55;;
69253;SDS011;56364;41.816;12.448;2023-08-20T09:48:55;15.80;;;7.13;;
69253;SDS011;56364;41.816;12.448;2023-08-20T09:51:24;12.18;;;6.63;;
69253;SDS011;56364;41.816;12.448;2023-08-20T09:54:02;9.95;;;6.20;;
69253;SDS011;56364;41.816;12.448;2023-08-20T09:56:32;12.75;;;6.78;;
69253;SDS011;56364;41.816;12.448;2023-08-20T09:59:03;12.32;;;6.97;;
69253;SDS011;56364;41.816;12.448;2023-08-20T10:01:30;14.93;;;6.85;;
69253;SDS011;56364;41.816;12.448;2023-08-20T10:04:09;14.43;;;7.40;;
69253;SDS011;56364;41.816;12.448;2023-08-20T10:06:36;11.52;;;7.07;;
69253;SDS011;56364;41.816;12.448;2023-08-20T10:09:02;14.60;;;7.47;;
69253;SDS011;56364;41.816;12.448;2023-08-20T10:11:46;19.23;;;6.55;;
69253;SDS011;56364;41.816;12.448;2023-08-20T10:14:18;14.10;;;6.85;;
69253;SDS011;56364;41.816;12.448;2023-08-20T10:16:47;13.20;;;7.07;;
69253;SDS011;56364;41.816;12.448;2023-08-20T10:22:25;13.60;;;7.20;;
69253;SDS011;56364;41.816;12.448;2023-08-20T10:27:54;14.70;;;7.20;;
69253;SDS011;56364;41.816;12.448;2023-08-20T10:38:13;11.07;;;6.32;;
69253;SDS011;56364;41.816;12.448;2023-08-20T10:40:57;13.25;;;6.93;;
69253;SDS011;56364;41.816;12.448;2023-08-20T10:46:35;12.63;;;7.18;;
69253;SDS011;56364;41.816;12.448;2023-08-20T10:49:01;12.20;;;7.13;;
69253;SDS011;56364;41.816;12.448;2023-08-20T10:51:28;15.75;;;7.88;;
69253;SDS011;56364;41.816;12.448;2023-08-20T10:56:46;12.30;;;7.28;;
69253;SDS011;56364;41.816;12.448;2023-08-20T11:01:52;12.25;;;6.70;;
69253;SDS011;56364;41.816;12.448;2023-08-20T11:04:19;13.98;;;6.93;;
69253;SDS011;56364;41.816;12.448;2023-08-20T11:06:54;12.05;;;6.90;;
69253;SDS011;56364;41.816;12.448;2023-08-20T11:09:24;12.88;;;7.13;;
69253;SDS011;56364;41.816;12.448;2023-08-20T11:11:51;10.52;;;6.10;;
69253;SDS011;56364;41.816;12.448;2023-08-20T11:14:17;15.95;;;6.65;;
69253;SDS011;56364;41.816;12.448;2023-08-20T11:16:44;10.95;;;6.13;;
69253;SDS011;56364;41.816;12.448;2023-08-20T11:19:10;11.57;;;7.00;;
69253;SDS011;56364;41.816;12.448;2023-08-20T11:21:40;11.23;;;6.50;;
69253;SDS011;56364;41.816;12.448;2023-08-20T11:24:07;11.50;;;6.70;;
69253;SDS011;56364;41.816;12.448;2023-08-20T11:26:34;12.52;;;6.57;;
69253;SDS011;56364;41.816;12.448;2023-08-20T11:29:01;14.80;;;6.45;;
69253;SDS011;56364;41.816;12.448;2023-08-20T11:31:28;11.73;;;7.03;;
69253;SDS011;56364;41.816;12.448;2023-08-20T11:36:31;12.95;;;6.43;;
69253;SDS011;56364;41.816;12.448;2023-08-20T11:38:57;14.25;;;7.53;;
69253;SDS011;56364;41.816;12.448;2023-08-20T11:41:24;14.93;;;7.00;;
69253;SDS011;56364;41.816;12.448;2023-08-20T11:43:51;11.52;;;6.97;;
69253;SDS011;56364;41.816;12.448;2023-08-20T11:46:18;12.40;;;6.57;;
69253;SDS011;56364;41.816;12.448;2023-08-20T11:49:04;13.35;;;6.95;;
69253;SDS011;56364;41.816;12.448;2023-08-20T11:51:51;11.77;;;6.85;;
69253;SDS011;56364;41.816;12.448;2023-08-20T11:54:17;12.23;;;6.72;;
69253;SDS011;56364;41.816;12.448;2023-08-20T11:59:10;9.35;;;5.53;;
69253;SDS011;56364;41.816;12.448;2023-08-20T12:01:39;11.90;;;7.20;;
69253;SDS011;56364;41.816;12.448;2023-08-20T12:04:06;10.25;;;6.20;;
69253;SDS011;56364;41.816;12.448;2023-08-20T12:06:32;11.63;;;6.50;;
69253;SDS011;56364;41.816;12.448;2023-08-20T12:08:59;13.07;;;6.60;;
69253;SDS011;56364;41.816;12.448;2023-08-20T12:11:26;11.07;;;6.28;;
69253;SDS011;56364;41.816;12.448;2023-08-20T12:13:59;10.55;;;6.65;;
69253;SDS011;56364;41.816;12.448;2023-08-20T12:16:28;10.52;;;6.85;;
69253;SDS011;56364;41.816;12.448;2023-08-20T12:18:55;10.27;;;6.47;;
69253;SDS011;56364;41.816;12.448;2023-08-20T12:21:21;10.27;;;6.18;;
69253;SDS011;56364;41.816;12.448;2023-08-20T12:23:49;11.93;;;6.70;;
69253;SDS011;56364;41.816;12.448;2023-08-20T12:26:21;13.02;;;6.72;;
69253;SDS011;56364;41.816;12.448;2023-08-20T12:28:47;12.02;;;6.53;;
69253;SDS011;56364;41.816;12.448;2023-08-20T12:31:13;12.75;;;6.93;;
69253;SDS011;56364;41.816;12.448;2023-08-20T12:41:27;14.85;;;6.97;;
69253;SDS011;56364;41.816;12.448;2023-08-20T12:49:08;11.88;;;6.47;;
69253;SDS011;56364;41.816;12.448;2023-08-20T12:51:37;13.00;;;7.00;;
69253;SDS011;56364;41.816;12.448;2023-08-20T12:54:03;11.10;;;6.57;;
69253;SDS011;56364;41.816;12.448;2023-08-20T12:56:29;11.30;;;7.18;;
69253;SDS011;56364;41.816;12.448;2023-08-20T12:58:55;16.85;;;7.35;;
69253;SDS011;56364;41.816;12.448;2023-08-20T13:01:21;12.50;;;6.53;;
69253;SDS011;56364;41.816;12.448;2023-08-20T13:03:47;12.27;;;7.10;;
69253;SDS011;56364;41.816;12.448;2023-08-20T13:06:14;11.93;;;7.15;;
69253;SDS011;56364;41.816;12.448;2023-08-20T13:08:40;9.85;;;6.63;;
69253;SDS011;56364;41.816;12.448;2023-08-20T13:11:07;10.65;;;6.78;;
69253;SDS011;56364;41.816;12.448;2023-08-20T13:13:33;9.80;;;6.78;;
69253;SDS011;56364;41.816;12.448;2023-08-20T13:15:59;10.18;;;6.55;;
69253;SDS011;56364;41.816;12.448;2023-08-20T13:18:25;11.57;;;6.93;;
69253;SDS011;56364;41.816;12.448;2023-08-20T13:20:52;11.05;;;6.95;;
69253;SDS011;56364;41.816;12.448;2023-08-20T13:23:18;11.55;;;7.22;;
69253;SDS011;56364;41.816;12.448;2023-08-20T13:25:44;10.55;;;7.05;;
69253;SDS011;56364;41.816;12.448;2023-08-20T13:28:10;10.25;;;6.80;;
69253;SDS011;56364;41.816;12.448;2023-08-20T13:30:36;14.57;;;6.93;;
69253;SDS011;56364;41.816;12.448;2023-08-20T13:33:02;10.07;;;6.28;;
69253;SDS011;56364;41.816;12.448;2023-08-20T13:35:28;10.90;;;6.82;;
69253;SDS011;56364;41.816;12.448;2023-08-20T13:37:54;10.52;;;7.07;;
69253;SDS011;56364;41.816;12.448;2023-08-20T13:40:20;9.55;;;6.32;;
69253;SDS011;56364;41.816;12.448;2023-08-20T13:42:47;10.68;;;6.60;;
69253;SDS011;56364;41.816;12.448;2023-08-20T13:45:13;9.13;;;6.05;;
69253;SDS011;56364;41.816;12.448;2023-08-20T13:47:39;13.43;;;6.47;;
69253;SDS011;56364;41.816;12.448;2023-08-20T13:50:05;11.00;;;7.30;;
69253;SDS011;56364;41.816;12.448;2023-08-20T14:00:18;8.23;;;4.97;;
69253;SDS011;56364;41.816;12.448;2023-08-20T14:02:44;14.85;;;6.25;;
69253;SDS011;56364;41.816;12.448;2023-08-20T14:07:46;12.35;;;6.95;;
69253;SDS011;56364;41.816;12.448;2023-08-20T14:10:12;12.82;;;7.20;;
69253;SDS011;56364;41.816;12.448;2023-08-20T14:12:38;9.77;;;6.10;;
69253;SDS011;56364;41.816;12.448;2023-08-20T14:15:05;13.45;;;6.50;;
69253;SDS011;56364;41.816;12.448;2023-08-20T14:20:07;12.02;;;6.43;;
69253;SDS011;56364;41.816;12.448;2023-08-20T14:22:36;13.75;;;7.20;;
69253;SDS011;56364;41.816;12.448;2023-08-20T14:25:02;11.27;;;5.57;;
69253;SDS011;56364;41.816;12.448;2023-08-20T14:27:29;6.80;;;5.00;;
69253;SDS011;56364;41.816;12.448;2023-08-20T14:29:58;14.30;;;6.95;;
69253;SDS011;56364;41.816;12.448;2023-08-20T14:32:24;14.65;;;6.57;;
69253;SDS011;56364;41.816;12.448;2023-08-20T14:34:50;11.98;;;6.70;;
69253;SDS011;56364;41.816;12.448;2023-08-20T14:37:16;12.32;;;6.07;;
69253;SDS011;56364;41.816;12.448;2023-08-20T14:39:42;8.63;;;5.38;;
69253;SDS011;56364;41.816;12.448;2023-08-20T14:42:08;11.15;;;6.57;;
69253;SDS011;56364;41.816;12.448;2023-08-20T14:44:34;10.63;;;5.55;;
69253;SDS011;56364;41.816;12.448;2023-08-20T14:47:00;8.85;;;5.75;;
69253;SDS011;56364;41.816;12.448;2023-08-20T14:49:29;8.18;;;4.72;;
69253;SDS011;56364;41.816;12.448;2023-08-20T14:51:59;9.95;;;5.15;;
69253;SDS011;56364;41.816;12.448;2023-08-20T14:54:25;9.38;;;5.65;;
69253;SDS011;56364;41.816;12.448;2023-08-20T14:56:51;13.85;;;6.57;;
69253;SDS011;56364;41.816;12.448;2023-08-20T14:59:17;12.10;;;6.90;;
69253;SDS011;56364;41.816;12.448;2023-08-20T15:01:43;10.30;;;6.07;;
69253;SDS011;56364;41.816;12.448;2023-08-20T15:04:09;11.05;;;6.10;;
69253;SDS011;56364;41.816;12.448;2023-08-20T15:06:35;9.18;;;5.63;;
69253;SDS011;56364;41.816;12.448;2023-08-20T15:09:01;13.70;;;5.78;;
69253;SDS011;56364;41.816;12.448;2023-08-20T15:11:28;9.80;;;6.07;;
69253;SDS011;56364;41.816;12.448;2023-08-20T15:13:54;12.50;;;5.35;;
69253;SDS011;56364;41.816;12.448;2023-08-20T15:16:20;8.40;;;5.00;;
69253;SDS011;56364;41.816;12.448;2023-08-20T15:18:47;16.13;;;5.72;;
69253;SDS011;56364;41.816;12.448;2023-08-20T15:21:13;6.63;;;4.72;;
69253;SDS011;56364;41.816;12.448;2023-08-20T15:23:39;12.13;;;6.45;;
69253;SDS011;56364;41.816;12.448;2023-08-20T15:26:05;10.30;;;6.15;;
69253;SDS011;56364;41.816;12.448;2023-08-20T15:28:31;8.57;;;4.25;;
69253;SDS011;56364;41.816;12.448;2023-08-20T15:30:57;7.30;;;3.92;;
69253;SDS011;56364;41.816;12.448;2023-08-20T15:33:23;13.23;;;5.35;;
69253;SDS011;56364;41.816;12.448;2023-08-20T15:35:49;10.75;;;5.57;;
69253;SDS011;56364;41.816;12.448;2023-08-20T15:38:15;9.60;;;5.13;;
69253;SDS011;56364;41.816;12.448;2023-08-20T15:40:41;9.63;;;5.18;;
69253;SDS011;56364;41.816;12.448;2023-08-20T15:43:07;13.98;;;6.20;;
69253;SDS011;56364;41.816;12.448;2023-08-20T15:45:33;9.82;;;6.20;;
69253;SDS011;56364;41.816;12.448;2023-08-20T15:48:00;12.07;;;6.28;;
69253;SDS011;56364;41.816;12.448;2023-08-20T15:50:26;11.35;;;5.50;;
69253;SDS011;56364;41.816;12.448;2023-08-20T15:52:53;10.65;;;6.00;;
69253;SDS011;56364;41.816;12.448;2023-08-20T15:55:19;9.15;;;5.90;;
69253;SDS011;56364;41.816;12.448;2023-08-20T15:57:45;10.48;;;5.05;;
69253;SDS011;56364;41.816;12.448;2023-08-20T16:00:11;9.07;;;5.30;;
69253;SDS011;56364;41.816;12.448;2023-08-20T16:02:42;9.05;;;5.25;;
69253;SDS011;56364;41.816;12.448;2023-08-20T16:05:08;8.15;;;5.55;;
69253;SDS011;56364;41.816;12.448;2023-08-20T16:07:34;9.73;;;5.53;;
69253;SDS011;56364;41.816;12.448;2023-08-20T16:10:00;9.10;;;4.78;;
69253;SDS011;56364;41.816;12.448;2023-08-20T16:12:26;7.88;;;5.13;;
69253;SDS011;56364;41.816;12.448;2023-08-20T16:14:52;9.55;;;5.47;;
69253;SDS011;56364;41.816;12.448;2023-08-20T16:17:18;10.82;;;5.55;;
69253;SDS011;56364;41.816;12.448;2023-08-20T16:19:44;11.85;;;5.63;;
69253;SDS011;56364;41.816;12.448;2023-08-20T16:22:11;11.35;;;5.78;;
69253;SDS011;56364;41.816;12.448;2023-08-20T16:24:37;14.90;;;5.63;;
69253;SDS011;56364;41.816;12.448;2023-08-20T16:27:08;8.57;;;5.20;;
69253;SDS011;56364;41.816;12.448;2023-08-20T16:29:34;8.38;;;5.30;;
69253;SDS011;56364;41.816;12.448;2023-08-20T16:32:00;8.65;;;5.85;;